Time;durP1;ratioP1;P1;durP2;ratioP2;P2;SDS_P1;SDS_P2;PMS_P1;PMS_P2;Temp;Humidity;BMP_temperature;BMP_pressure;BME280_temperature;BME280_humidity;BME280_pressure;Samples;Min_cycle;Max_cycle;Signal;HPM_P1;HPM_P2
2022/04/26 03:38:04;;;;;;;14.43;11.13;;;7.80;99.90;;;;;;5116874;28;20432;-72
2022/04/26 03:40:31;;;;;;;15.77;10.93;;;7.70;99.90;;;;;;5116876;28;20491;-72
2022/04/26 03:42:58;;;;;;;16.80;11.40;;;7.70;99.90;;;;;;5117348;28;20780;-72
2022/04/26 03:45:24;;;;;;;16.07;11.40;;;7.70;99.90;;;;;;5116924;28;20464;-72
2022/04/26 03:47:51;;;;;;;15.80;11.53;;;7.70;99.90;;;;;;5117177;28;20456;-72
2022/04/26 03:50:20;;;;;;;17.00;12.00;;;7.70;99.90;;;;;;5116676;28;20459;-71
2022/04/26 03:52:47;;;;;;;18.30;11.53;;;7.70;99.90;;;;;;5116075;28;20924;-72
2022/04/26 03:55:14;;;;;;;20.93;12.20;;;7.70;99.90;;;;;;5117346;28;20789;-72
2022/04/26 03:57:40;;;;;;;16.50;11.63;;;7.70;99.90;;;;;;5117192;28;20488;-73
2022/04/26 04:00:08;;;;;;;16.37;11.70;;;7.70;99.90;;;;;;5117098;28;20487;-72
2022/04/26 04:02:35;;;;;;;20.23;12.60;;;7.80;99.90;;;;;;5116597;28;20981;-72
2022/04/26 04:05:01;;;;;;;15.90;10.50;;;7.80;99.90;;;;;;5116873;28;20901;-72
2022/04/26 04:07:29;;;;;;;15.90;11.70;;;7.90;99.90;;;;;;5116978;28;20789;-72
2022/04/26 04:09:56;;;;;;;18.33;13.33;;;7.90;99.90;;;;;;5116400;28;21025;-70
2022/04/26 04:12:23;;;;;;;19.20;12.07;;;7.90;99.90;;;;;;5116594;28;20489;-72
2022/04/26 04:14:50;;;;;;;21.77;12.23;;;7.90;99.90;;;;;;5116347;28;20520;-73
2022/04/26 04:17:16;;;;;;;16.23;12.00;;;7.90;99.90;;;;;;5116082;28;20598;-71
2022/04/26 04:19:43;;;;;;;21.00;13.53;;;8.00;99.90;;;;;;5116251;28;20459;-70
2022/04/26 04:22:10;;;;;;;20.60;11.80;;;8.00;99.90;;;;;;5115616;28;20590;-71
2022/04/26 04:24:38;;;;;;;14.53;11.80;;;8.00;99.90;;;;;;5115989;28;20455;-71
2022/04/26 04:27:05;;;;;;;17.53;11.93;;;8.00;99.90;;;;;;5116091;28;20516;-71
2022/04/26 04:29:32;;;;;;;15.40;11.03;;;8.00;99.90;;;;;;5115893;28;20495;-72
2022/04/26 04:31:58;;;;;;;14.67;12.10;;;8.00;99.90;;;;;;5116322;28;20476;-72
2022/04/26 04:34:25;;;;;;;21.90;13.20;;;8.10;99.90;;;;;;5115839;28;20936;-71
2022/04/26 04:36:52;;;;;;;16.67;11.30;;;8.10;99.90;;;;;;5116001;28;20905;-72
2022/04/26 04:39:20;;;;;;;18.03;11.33;;;8.10;99.90;;;;;;5115952;28;20466;-72
2022/04/26 04:41:48;;;;;;;15.60;11.13;;;8.20;99.90;;;;;;5115648;28;20785;-72
2022/04/26 04:44:15;;;;;;;19.50;11.53;;;8.30;99.90;;;;;;5098266;28;20787;-73
2022/04/26 04:46:42;;;;;;;13.53;10.03;;;8.30;99.90;;;;;;5116175;28;20551;-72
2022/04/26 04:49:09;;;;;;;16.00;11.03;;;8.30;99.90;;;;;;5116728;28;20456;-71
2022/04/26 04:51:36;;;;;;;78.17;48.30;;;8.30;99.90;;;;;;5116715;28;20459;-71
2022/04/26 04:54:02;;;;;;;44.23;31.43;;;8.40;99.90;;;;;;5116695;28;20885;-72
2022/04/26 04:56:29;;;;;;;20.00;11.90;;;8.50;99.90;;;;;;5116083;28;20502;-72
2022/04/26 04:58:57;;;;;;;18.07;11.53;;;8.60;99.90;;;;;;5115402;28;20951;-71
2022/04/26 05:01:24;;;;;;;19.17;11.57;;;8.60;99.90;;;;;;5115594;28;20487;-73
2022/04/26 05:03:52;;;;;;;15.40;10.70;;;8.70;99.90;;;;;;5114102;28;20924;-73
2022/04/26 05:06:19;;;;;;;17.53;11.93;;;8.80;99.90;;;;;;5115479;28;20555;-71
2022/04/26 05:08:46;;;;;;;18.80;11.30;;;8.80;99.90;;;;;;5115450;28;20517;-70
2022/04/26 05:11:13;;;;;;;16.30;11.10;;;8.80;99.90;;;;;;5115489;28;20464;-71
2022/04/26 05:13:40;;;;;;;25.80;19.53;;;8.80;99.90;;;;;;5115193;28;20920;-72
2022/04/26 05:16:08;;;;;;;15.37;11.07;;;8.80;99.90;;;;;;5115578;28;20448;-72
2022/04/26 05:18:35;;;;;;;15.00;11.60;;;8.90;99.90;;;;;;5115180;28;20479;-71
2022/04/26 05:21:01;;;;;;;19.63;9.83;;;9.00;99.90;;;;;;5115430;28;20832;-72
2022/04/26 05:26:12;;;;;;;12.97;9.07;;;9.00;99.90;;;;;;5115225;28;20423;-72
2022/04/26 05:28:39;;;;;;;16.60;10.80;;;9.10;99.90;;;;;;5114839;28;20513;-73
2022/04/26 05:31:08;;;;;;;18.23;11.83;;;9.20;99.90;;;;;;5115338;28;20453;-72
2022/04/26 05:33:35;;;;;;;12.10;9.50;;;9.20;99.90;;;;;;5115193;28;20492;-72
2022/04/26 05:36:01;;;;;;;14.33;10.50;;;9.30;99.90;;;;;;5115111;28;20471;-72
2022/04/26 05:38:28;;;;;;;14.90;9.60;;;9.40;99.90;;;;;;5114879;28;20924;-71
2022/04/26 05:40:55;;;;;;;11.00;8.67;;;9.40;99.90;;;;;;5117839;28;20476;-72
2022/04/26 05:43:22;;;;;;;12.77;8.50;;;9.40;99.90;;;;;;5117997;28;20457;-72
2022/04/26 05:45:48;;;;;;;17.07;9.63;;;9.40;99.90;;;;;;5116631;28;20456;-72
2022/04/26 05:48:16;;;;;;;25.30;11.07;;;9.40;99.90;;;;;;5114754;28;20463;-71
2022/04/26 05:50:43;;;;;;;16.80;10.10;;;9.50;99.90;;;;;;5114422;28;20463;-71
2022/04/26 05:53:10;;;;;;;32.30;16.30;;;9.50;99.90;;;;;;5114869;28;20456;-71
2022/04/26 05:55:38;;;;;;;22.93;15.50;;;9.60;99.90;;;;;;5114508;28;20949;-72
2022/04/26 05:58:05;;;;;;;19.60;11.43;;;9.60;99.90;;;;;;5114736;28;20448;-72
2022/04/26 06:00:32;;;;;;;14.83;10.43;;;9.60;99.90;;;;;;5114843;28;20889;-72
2022/04/26 06:02:59;;;;;;;13.27;9.03;;;9.70;99.90;;;;;;5114577;28;20496;-72
2022/04/26 06:05:27;;;;;;;11.60;7.97;;;9.70;99.90;;;;;;5114844;28;20452;-72
2022/04/26 06:07:53;;;;;;;13.90;7.27;;;9.70;99.90;;;;;;5114800;28;20453;-72
2022/04/26 06:10:20;;;;;;;12.60;8.00;;;9.80;99.90;;;;;;5115003;28;20448;-71
2022/04/26 06:12:48;;;;;;;9.60;7.10;;;9.80;99.90;;;;;;5115097;28;20448;-72
2022/04/26 06:15:17;;;;;;;10.40;7.13;;;9.90;99.90;;;;;;5115627;28;20451;-73
2022/04/26 06:17:45;;;;;;;11.90;6.93;;;10.00;99.90;;;;;;5118674;28;20464;-72
2022/04/26 06:20:12;;;;;;;13.60;7.90;;;10.10;99.90;;;;;;5118555;28;20498;-71
2022/04/26 06:22:40;;;;;;;11.23;8.13;;;10.20;99.90;;;;;;5118134;28;20484;-72
2022/04/26 06:25:08;;;;;;;8.00;6.20;;;10.20;99.90;;;;;;5118502;28;20456;-71
2022/04/26 06:27:35;;;;;;;9.10;6.13;;;10.30;99.90;;;;;;5118491;28;20452;-72
2022/04/26 06:30:02;;;;;;;17.80;6.80;;;10.30;99.90;;;;;;5118236;28;20467;-72
2022/04/26 06:32:28;;;;;;;46.20;10.03;;;10.40;99.90;;;;;;5118358;28;20483;-71
2022/04/26 06:34:55;;;;;;;36.70;8.10;;;10.40;99.90;;;;;;5117979;28;20479;-72
2022/04/26 06:37:23;;;;;;;16.10;6.40;;;10.50;99.90;;;;;;5118539;28;20452;-73
2022/04/26 06:39:51;;;;;;;8.20;5.40;;;10.60;99.90;;;;;;5117870;28;20968;-71
2022/04/26 06:42:18;;;;;;;14.80;6.60;;;10.70;99.90;;;;;;5117741;28;20523;-72
2022/04/26 06:44:45;;;;;;;8.23;5.07;;;10.80;99.90;;;;;;5117892;28;20459;-73
2022/04/26 06:47:11;;;;;;;13.60;5.50;;;10.90;99.90;;;;;;5118094;28;20468;-73
2022/04/26 06:49:38;;;;;;;8.93;5.37;;;11.00;99.90;;;;;;5117705;28;20545;-72
2022/04/26 06:52:05;;;;;;;14.03;5.13;;;11.10;99.90;;;;;;5117888;28;20448;-72
2022/04/26 06:54:32;;;;;;;13.73;5.67;;;11.10;99.90;;;;;;5117809;28;20467;-71
2022/04/26 06:57:00;;;;;;;7.33;5.00;;;11.20;99.90;;;;;;5117508;28;20484;-72
2022/04/26 06:59:26;;;;;;;5.03;3.83;;;11.30;99.90;;;;;;5117540;28;20865;-71
2022/04/26 07:01:54;;;;;;;4.50;3.70;;;11.30;99.90;;;;;;5117730;28;20476;-72
2022/04/26 07:04:21;;;;;;;6.33;3.47;;;11.40;99.90;;;;;;5117565;28;20509;-72
2022/04/26 07:06:49;;;;;;;3.40;3.10;;;11.50;99.90;;;;;;5117672;28;20462;-73
2022/04/26 07:09:16;;;;;;;5.43;3.43;;;11.50;99.90;;;;;;5117613;28;20460;-72
2022/04/26 07:11:43;;;;;;;6.50;3.60;;;11.60;99.90;;;;;;5117483;28;20452;-72
2022/04/26 07:14:12;;;;;;;6.83;3.50;;;11.70;99.90;;;;;;5117595;28;20784;-73
2022/04/26 07:16:39;;;;;;;4.47;3.43;;;11.70;99.90;;;;;;5117247;28;20457;-71
2022/04/26 07:19:06;;;;;;;8.80;3.30;;;11.70;99.90;;;;;;5117367;28;20517;-73
2022/04/26 07:21:35;;;;;;;8.40;3.27;;;11.80;99.90;;;;;;5117253;28;20495;-71
2022/04/26 07:24:02;;;;;;;3.87;3.47;;;11.90;99.90;;;;;;5116804;28;20456;-72
2022/04/26 07:26:29;;;;;;;4.63;3.60;;;11.90;99.90;;;;;;5116007;28;20467;-72
2022/04/26 07:28:55;;;;;;;13.03;4.50;;;11.90;99.90;;;;;;5116376;28;20917;-72
2022/04/26 07:31:24;;;;;;;4.67;3.40;;;12.00;99.90;;;;;;5116510;28;20459;-71
2022/04/26 07:36:34;;;;;;;4.13;3.20;;;12.10;99.90;;;;;;5105942;28;20816;-72
2022/04/26 07:39:01;;;;;;;3.63;2.97;;;12.10;99.90;;;;;;5117233;28;20826;-72
2022/04/26 07:41:28;;;;;;;7.30;2.80;;;12.10;99.90;;;;;;5116989;28;20777;-74
2022/04/26 07:43:55;;;;;;;3.53;2.43;;;12.10;99.90;;;;;;5116693;28;20865;-72
2022/04/26 07:46:23;;;;;;;2.90;2.33;;;12.10;99.90;;;;;;5117017;28;20527;-72
2022/04/26 07:48:50;;;;;;;4.20;2.97;;;12.20;99.90;;;;;;5116294;28;20963;-73
2022/04/26 07:51:18;;;;;;;12.20;8.87;;;12.20;99.90;;;;;;5116839;28;20549;-72
2022/04/26 07:53:45;;;;;;;6.17;3.67;;;12.30;99.90;;;;;;5117034;28;20452;-71
2022/04/26 07:56:11;;;;;;;5.23;3.23;;;12.40;99.90;;;;;;5116813;28;20476;-72
2022/04/26 07:58:38;;;;;;;4.13;2.73;;;12.40;99.90;;;;;;5116474;28;20463;-71
2022/04/26 08:01:05;;;;;;;4.10;3.63;;;12.50;99.90;;;;;;5115775;28;20452;-72
2022/04/26 08:03:33;;;;;;;3.13;2.70;;;12.60;99.90;;;;;;5116302;28;20456;-72
2022/04/26 08:06:00;;;;;;;4.27;2.90;;;12.60;99.90;;;;;;5116468;28;20495;-71
2022/04/26 08:08:27;;;;;;;9.60;7.40;;;12.50;99.90;;;;;;5116520;28;20534;-71
2022/04/26 08:10:53;;;;;;;3.63;2.70;;;12.60;99.90;;;;;;5115809;28;20456;-71
2022/04/26 08:13:20;;;;;;;2.83;2.40;;;12.60;99.90;;;;;;5116670;28;20448;-72
2022/04/26 08:15:47;;;;;;;1.60;1.40;;;12.70;99.40;;;;;;5115649;28;20452;-72
2022/04/26 08:18:15;;;;;;;2.13;1.87;;;12.70;95.40;;;;;;5116752;28;20783;-71
2022/04/26 08:20:44;;;;;;;4.07;1.93;;;12.80;93.30;;;;;;5116151;28;20521;-72
2022/04/26 08:23:11;;;;;;;2.23;1.70;;;12.80;91.20;;;;;;5116178;28;20592;-72
2022/04/26 08:28:22;;;;;;;1.60;1.50;;;12.90;78.30;;;;;;5115500;28;20438;-73
2022/04/26 08:30:49;;;;;;;1.70;1.60;;;12.90;81.90;;;;;;5115420;28;20494;-71
2022/04/26 08:33:17;;;;;;;2.33;1.90;;;13.00;84.30;;;;;;5115659;28;20452;-71
2022/04/26 08:35:45;;;;;;;3.00;1.70;;;13.10;84.20;;;;;;5115678;28;20467;-73
2022/04/26 08:38:12;;;;;;;3.83;1.73;;;13.20;82.30;;;;;;5115479;28;20453;-71
2022/04/26 08:40:38;;;;;;;2.50;2.30;;;13.30;81.00;;;;;;5115761;28;20466;-71
2022/04/26 08:43:05;;;;;;;2.20;1.90;;;13.30;81.80;;;;;;5116603;28;20472;-72
2022/04/26 08:45:33;;;;;;;1.77;1.67;;;13.40;80.50;;;;;;5116702;28;20452;-72
2022/04/26 08:51:00;;;;;;;1.87;1.70;;;13.30;81.70;;;;;;5116579;28;20465;-72
2022/04/26 08:53:28;;;;;;;5.60;5.00;;;13.30;82.60;;;;;;5115674;28;20433;-70
2022/04/26 08:55:57;;;;;;;5.20;2.83;;;13.30;84.10;;;;;;5115621;28;20545;-71
2022/04/26 08:58:27;;;;;;;3.40;2.43;;;13.40;82.10;;;;;;5115650;28;20441;-71
2022/04/26 09:01:11;;;;;;;4.70;3.10;;;13.40;84.10;;;;;;5115450;28;20495;-71
2022/04/26 09:03:40;;;;;;;3.27;2.30;;;13.50;88.50;;;;;;5115073;28;20448;-70
2022/04/26 09:06:11;;;;;;;5.90;2.47;;;13.60;90.00;;;;;;5115357;28;20463;-70
2022/04/26 09:08:38;;;;;;;2.33;2.13;;;13.70;89.60;;;;;;5116115;28;20436;-70
2022/04/26 09:11:20;;;;;;;4.47;2.67;;;13.70;89.70;;;;;;5115873;28;20453;-71
2022/04/26 09:13:47;;;;;;;3.30;2.27;;;13.80;88.90;;;;;;5115677;28;20472;-71
2022/04/26 09:16:17;;;;;;;3.00;2.70;;;13.80;89.70;;;;;;5115769;28;20460;-71
2022/04/26 09:18:53;;;;;;;4.23;2.87;;;13.90;90.00;;;;;;5115406;28;20456;-70
2022/04/26 09:21:21;;;;;;;3.67;2.57;;;13.90;89.10;;;;;;5115356;28;20784;-70
2022/04/26 09:23:49;;;;;;;4.50;3.10;;;14.10;89.70;;;;;;5115344;28;20764;-71
2022/04/26 09:26:17;;;;;;;2.70;2.50;;;14.10;88.70;;;;;;5115485;28;20982;-71
2022/04/26 09:28:46;;;;;;;3.10;2.40;;;14.10;87.30;;;;;;5115103;28;20452;-70
2022/04/26 09:31:20;;;;;;;5.97;3.23;;;14.20;86.70;;;;;;5115122;28;20452;-72
2022/04/26 09:33:49;;;;;;;4.13;3.30;;;14.20;88.90;;;;;;5115561;28;20456;-71
2022/04/26 09:36:18;;;;;;;6.13;5.43;;;14.20;88.90;;;;;;5114531;28;20505;-71
2022/04/26 09:38:52;;;;;;;3.40;2.63;;;14.30;90.10;;;;;;5114678;28;20499;-72
2022/04/26 09:41:19;;;;;;;3.30;2.90;;;14.40;90.40;;;;;;5114626;28;20542;-72
2022/04/26 09:43:57;;;;;;;3.77;2.60;;;14.50;90.00;;;;;;5114615;28;20480;-71
2022/04/26 09:46:23;;;;;;;3.10;2.90;;;14.50;90.30;;;;;;5114468;28;20521;-72
2022/04/26 09:48:52;;;;;;;4.83;3.00;;;14.60;90.30;;;;;;5114555;28;20924;-70
2022/04/26 09:51:19;;;;;;;4.03;2.90;;;14.60;90.40;;;;;;5116944;28;20548;-71
2022/04/26 09:53:45;;;;;;;3.27;2.90;;;14.70;90.50;;;;;;5118498;28;20456;-71
2022/04/26 09:56:14;;;;;;;2.60;2.40;;;14.80;90.10;;;;;;5118472;28;20537;-70
2022/04/26 09:58:42;;;;;;;6.90;3.00;;;14.90;90.00;;;;;;5118208;28;20938;-71
2022/04/26 10:01:10;;;;;;;2.50;2.07;;;15.10;89.90;;;;;;5118918;28;20936;-71
2022/04/26 10:03:37;;;;;;;2.53;2.30;;;15.20;86.10;;;;;;5118200;28;20513;-71
2022/04/26 10:06:06;;;;;;;3.97;2.33;;;15.20;85.20;;;;;;5119303;28;20927;-71
2022/04/26 10:08:35;;;;;;;3.60;3.00;;;15.30;84.70;;;;;;5121175;28;20482;-72
2022/04/26 10:11:04;;;;;;;5.90;2.97;;;15.40;83.10;;;;;;5118144;28;20457;-70
2022/04/26 10:13:39;;;;;;;2.87;2.60;;;15.50;83.10;;;;;;5118026;28;20474;-70
2022/04/26 10:16:07;;;;;;;3.30;2.63;;;15.50;80.80;;;;;;5118016;28;20484;-70
2022/04/26 10:18:35;;;;;;;2.60;2.40;;;15.50;80.00;;;;;;5117868;28;20451;-70
2022/04/26 10:21:04;;;;;;;3.00;2.70;;;15.50;81.30;;;;;;5117798;28;20807;-70
2022/04/26 10:24:12;;;;;;;5.50;3.70;;;15.50;81.90;;;;;;5118181;28;20484;-70
2022/04/26 10:26:39;;;;;;;3.50;3.10;;;15.50;83.30;;;;;;5118073;28;20477;-72
2022/04/26 10:29:16;;;;;;;4.70;3.07;;;15.70;82.70;;;;;;5117541;28;20915;-71
2022/04/26 10:31:45;;;;;;;6.60;3.23;;;15.80;81.20;;;;;;5118024;28;20881;-71
2022/04/26 10:34:29;;;;;;;7.57;2.70;;;15.90;78.90;;;;;;5117655;28;20535;-71
2022/04/26 10:36:59;;;;;;;4.67;3.27;;;15.90;79.30;;;;;;5118779;28;20452;-72
2022/04/26 10:39:46;;;;;;;9.60;7.87;;;16.00;79.00;;;;;;5118739;28;20456;-72
2022/04/26 10:42:27;;;;;;;4.23;3.03;;;16.00;79.40;;;;;;5117799;28;20460;-71
2022/04/26 10:45:00;;;;;;;4.33;2.80;;;16.00;80.10;;;;;;5117897;28;20464;-70
2022/04/26 10:47:30;;;;;;;4.87;2.77;;;16.10;80.60;;;;;;5118386;28;20450;-71
2022/04/26 10:49:59;;;;;;;3.10;2.80;;;16.20;79.00;;;;;;5117939;28;20460;-71
2022/04/26 10:52:47;;;;;;;3.90;3.50;;;16.30;76.00;;;;;;5117561;28;20452;-71
2022/04/26 10:55:15;;;;;;;3.40;2.67;;;16.20;75.00;;;;;;5117461;28;20505;-72
2022/04/26 10:57:45;;;;;;;3.50;3.20;;;16.20;75.80;;;;;;5120287;28;20508;-70
2022/04/26 11:00:16;;;;;;;3.83;2.93;;;16.30;77.20;;;;;;5118059;28;20495;-72
2022/04/26 11:02:44;;;;;;;6.50;2.30;;;16.40;78.60;;;;;;5117163;28;20472;-72
2022/04/26 11:05:12;;;;;;;3.20;2.90;;;16.60;77.20;;;;;;5117385;28;20791;-72
2022/04/26 11:07:41;;;;;;;4.27;2.90;;;16.80;77.70;;;;;;5117451;28;20452;-71
2022/04/26 11:10:09;;;;;;;2.93;2.60;;;17.00;75.20;;;;;;5117141;28;20737;-71
2022/04/26 11:12:37;;;;;;;3.80;3.27;;;17.10;74.90;;;;;;5118044;28;20768;-71
2022/04/26 11:15:07;;;;;;;2.90;2.70;;;17.20;74.80;;;;;;5117033;28;20457;-71
2022/04/26 11:17:35;;;;;;;3.90;2.87;;;17.30;73.10;;;;;;5116902;28;20913;-71
2022/04/26 11:20:05;;;;;;;2.90;2.70;;;17.50;71.80;;;;;;5116547;28;20909;-71
2022/04/26 11:22:32;;;;;;;3.40;2.90;;;18.10;70.30;;;;;;5117317;28;20483;-71
2022/04/26 11:28:03;;;;;;;4.00;3.60;;;20.40;65.00;;;;;;5117063;28;20509;-72
2022/04/26 11:30:31;;;;;;;2.60;2.40;;;21.70;57.70;;;;;;5116686;28;20865;-72
2022/04/26 11:33:01;;;;;;;2.73;2.50;;;22.70;52.20;;;;;;5116978;28;20521;-71
2022/04/26 11:35:28;;;;;;;4.03;2.50;;;23.70;49.00;;;;;;5116526;28;20475;-71
2022/04/26 11:37:57;;;;;;;3.13;2.47;;;24.40;46.50;;;;;;5116575;28;20452;-71
2022/04/26 11:40:25;;;;;;;2.60;2.40;;;25.00;42.10;;;;;;5116801;28;20460;-71
2022/04/26 11:42:52;;;;;;;4.17;2.70;;;25.60;39.00;;;;;;5116650;28;20785;-72
2022/04/26 11:45:21;;;;;;;2.37;2.17;;;25.60;37.80;;;;;;5117259;28;20945;-72
2022/04/26 11:47:49;;;;;;;2.40;2.20;;;26.00;36.00;;;;;;5116570;28;20522;-71
2022/04/26 11:50:20;;;;;;;5.37;3.90;;;26.30;34.30;;;;;;5116106;28;20940;-71
2022/04/26 11:52:49;;;;;;;2.50;2.30;;;26.80;33.80;;;;;;5116432;28;20444;-72
2022/04/26 11:55:23;;;;;;;2.60;2.20;;;27.50;33.30;;;;;;5116237;28;20513;-71
2022/04/26 11:57:51;;;;;;;2.30;2.07;;;28.20;29.90;;;;;;5116422;28;20505;-72
2022/04/26 12:00:22;;;;;;;2.97;2.70;;;28.80;29.00;;;;;;5116307;28;20939;-71
2022/04/26 12:02:55;;;;;;;3.07;2.53;;;29.30;27.60;;;;;;5116682;28;20472;-71
2022/04/26 12:05:24;;;;;;;3.10;2.83;;;28.90;26.20;;;;;;5116378;28;20782;-72
2022/04/26 12:07:51;;;;;;;3.03;2.77;;;28.40;25.80;;;;;;5117561;28;20868;-71
2022/04/26 12:10:29;;;;;;;3.83;2.90;;;28.10;25.90;;;;;;5116266;28;20448;-71
2022/04/26 12:12:58;;;;;;;2.87;2.43;;;28.50;26.00;;;;;;5115901;28;20440;-71
2022/04/26 12:15:27;;;;;;;3.53;2.33;;;28.60;24.90;;;;;;5116302;28;20460;-71
2022/04/26 12:18:08;;;;;;;2.50;2.30;;;28.80;25.70;;;;;;5115911;28;20459;-71
2022/04/26 12:20:51;;;;;;;2.80;1.97;;;28.80;24.90;;;;;;5115905;28;20444;-71
2022/04/26 12:23:22;;;;;;;2.20;2.00;;;28.60;24.40;;;;;;5115134;28;21006;-71
2022/04/26 12:25:53;;;;;;;2.90;2.07;;;29.00;25.00;;;;;;5115777;28;20889;-72
2022/04/26 12:28:19;;;;;;;2.57;2.30;;;28.60;23.80;;;;;;5115667;28;20440;-71
2022/04/26 12:30:46;;;;;;;3.57;2.20;;;28.00;23.80;;;;;;5115690;28;20467;-72
2022/04/26 12:33:25;;;;;;;2.63;2.43;;;27.80;25.10;;;;;;5114894;28;20779;-71
2022/04/26 12:35:59;;;;;;;3.20;2.87;;;28.00;26.20;;;;;;5115432;28;20448;-70
2022/04/26 12:38:26;;;;;;;5.03;2.70;;;28.90;25.40;;;;;;5115254;28;20867;-71
2022/04/26 12:41:02;;;;;;;2.70;2.50;;;29.50;24.80;;;;;;5115379;28;20520;-71
2022/04/26 12:43:29;;;;;;;3.60;3.30;;;30.50;24.00;;;;;;5115496;28;20456;-73
2022/04/26 12:46:01;;;;;;;4.80;4.40;;;30.40;23.10;;;;;;5116186;28;20510;-71
2022/04/26 12:51:18;;;;;;;3.47;2.30;;;30.30;22.80;;;;;;5115550;28;20429;-71
2022/04/26 12:53:46;;;;;;;2.37;2.17;;;30.40;22.30;;;;;;5115472;28;20913;-72
2022/04/26 12:56:14;;;;;;;2.33;2.10;;;30.80;22.90;;;;;;5115169;28;20476;-71
2022/04/26 12:58:42;;;;;;;3.07;2.50;;;31.60;22.60;;;;;;5115683;28;20905;-71
2022/04/26 13:01:12;;;;;;;4.40;2.47;;;32.40;21.10;;;;;;5115548;28;20504;-72
2022/04/26 13:03:41;;;;;;;1.90;1.73;;;32.90;20.90;;;;;;5115250;28;20551;-75
2022/04/26 13:06:10;;;;;;;2.20;2.00;;;33.00;20.30;;;;;;5115668;28;20483;-72
2022/04/26 13:08:40;;;;;;;2.73;2.40;;;32.90;19.50;;;;;;5115598;28;20449;-73
2022/04/26 13:11:14;;;;;;;3.30;2.03;;;32.40;20.00;;;;;;5115790;28;20509;-73
2022/04/26 13:13:42;;;;;;;3.07;2.13;;;32.40;19.60;;;;;;5115308;28;20479;-72
2022/04/26 13:16:09;;;;;;;7.10;2.10;;;32.10;19.50;;;;;;5115469;28;20471;-72
2022/04/26 13:18:36;;;;;;;4.87;2.73;;;31.20;19.40;;;;;;5115008;28;20461;-71
2022/04/26 13:21:03;;;;;;;2.50;2.27;;;30.90;19.40;;;;;;5114698;28;20483;-71
2022/04/26 13:23:32;;;;;;;3.00;2.33;;;30.20;19.60;;;;;;5114574;28;20480;-71
2022/04/26 13:26:01;;;;;;;2.83;2.63;;;30.30;20.60;;;;;;5113761;28;20482;-71
2022/04/26 13:28:28;;;;;;;2.43;2.23;;;30.80;20.00;;;;;;5114469;28;20461;-72
2022/04/26 13:30:55;;;;;;;2.40;2.20;;;30.90;19.30;;;;;;5114596;28;20554;-71
2022/04/26 13:33:22;;;;;;;3.77;2.23;;;29.70;19.70;;;;;;5114214;28;20460;-73
2022/04/26 13:35:49;;;;;;;3.23;2.00;;;28.80;19.40;;;;;;5114798;28;20464;-72
2022/04/26 13:38:17;;;;;;;3.50;2.10;;;27.00;20.10;;;;;;5114884;28;20463;-73
2022/04/26 13:40:45;;;;;;;8.07;2.20;;;25.70;21.40;;;;;;5114502;28;20513;-73
2022/04/26 13:43:13;;;;;;;4.20;2.20;;;25.00;22.70;;;;;;5114608;28;20566;-74
2022/04/26 13:45:40;;;;;;;2.30;1.63;;;25.30;24.10;;;;;;5114541;28;20460;-73
2022/04/26 13:48:11;;;;;;;3.20;1.80;;;26.20;23.60;;;;;;5114572;28;20457;-73
2022/04/26 13:50:38;;;;;;;2.33;1.93;;;26.90;23.00;;;;;;5114534;28;20539;-73
2022/04/26 13:53:05;;;;;;;2.07;1.70;;;27.50;22.50;;;;;;5114787;28;20452;-73
2022/04/26 13:55:32;;;;;;;2.30;2.10;;;28.20;22.20;;;;;;5114282;28;20456;-73
2022/04/26 13:57:59;;;;;;;2.50;2.27;;;28.40;21.10;;;;;;5114636;28;20768;-73
2022/04/26 14:00:30;;;;;;;4.60;2.60;;;27.90;21.30;;;;;;5114369;28;20555;-73
2022/04/26 14:02:57;;;;;;;1.73;1.63;;;27.20;21.60;;;;;;5114889;28;20436;-73
2022/04/26 14:05:25;;;;;;;2.63;2.17;;;26.90;21.20;;;;;;5114755;28;20456;-73
2022/04/26 14:07:52;;;;;;;2.57;2.37;;;27.20;21.10;;;;;;5114707;28;20833;-72
2022/04/26 14:10:19;;;;;;;1.70;1.60;;;27.20;20.70;;;;;;5114667;28;20543;-73
2022/04/26 14:12:45;;;;;;;2.63;2.43;;;26.80;20.40;;;;;;5114524;28;20456;-73
2022/04/26 14:23:38;;;;;;;4.07;2.93;;;24.10;22.00;;;;;;5114542;28;20463;-74
2022/04/26 14:26:06;;;;;;;2.07;1.93;;;23.50;22.70;;;;;;5114437;28;20460;-73
2022/04/26 14:28:33;;;;;;;2.43;1.93;;;23.20;23.10;;;;;;5114788;28;20539;-73
2022/04/26 14:31:00;;;;;;;2.00;1.80;;;23.00;23.20;;;;;;5114214;28;20936;-73
2022/04/26 14:33:28;;;;;;;2.80;2.60;;;22.70;23.30;;;;;;5114367;28;20555;-73
2022/04/26 14:35:54;;;;;;;2.33;1.60;;;22.50;23.80;;;;;;5114037;28;20452;-73
2022/04/26 14:38:21;;;;;;;3.73;1.90;;;22.30;23.80;;;;;;5118175;28;20452;-74
2022/04/26 14:40:48;;;;;;;5.23;3.23;;;22.30;24.10;;;;;;5117866;28;20925;-73
2022/04/26 14:43:15;;;;;;;3.03;2.73;;;22.50;24.30;;;;;;5117853;28;20925;-74
2022/04/26 14:45:45;;;;;;;2.00;1.67;;;23.10;24.70;;;;;;5118629;28;20456;-73
2022/04/26 14:48:14;;;;;;;5.33;2.37;;;24.20;24.00;;;;;;5118089;28;20460;-73
2022/04/26 14:50:42;;;;;;;2.80;2.27;;;25.40;22.70;;;;;;5118023;28;20467;-73
2022/04/26 14:53:09;;;;;;;4.43;2.80;;;26.10;21.80;;;;;;5117648;28;20473;-73
2022/04/26 14:55:36;;;;;;;3.70;1.80;;;26.60;22.30;;;;;;5117305;28;20491;-73
2022/04/26 14:58:03;;;;;;;1.80;1.63;;;27.40;21.80;;;;;;5117386;28;20460;-73
2022/04/26 15:00:31;;;;;;;2.57;2.20;;;28.00;20.50;;;;;;5118005;28;20802;-73
2022/04/26 15:02:58;;;;;;;2.10;1.60;;;27.80;20.60;;;;;;5117618;28;20456;-72
2022/04/26 15:05:26;;;;;;;1.87;1.50;;;27.70;20.80;;;;;;5116954;28;20495;-73
2022/04/26 15:10:38;;;;;;;3.00;1.70;;;27.70;20.50;;;;;;5117026;28;20879;-73
2022/04/26 15:18:35;;;;;;;2.23;2.03;;;25.00;22.50;;;;;;5116942;28;20883;-73
2022/04/26 15:21:08;;;;;;;3.10;1.80;;;24.00;23.30;;;;;;5116854;28;20452;-73
2022/04/26 15:23:37;;;;;;;3.27;1.80;;;23.30;23.90;;;;;;5116827;28;20473;-73
2022/04/26 15:26:06;;;;;;;2.70;1.90;;;22.80;24.50;;;;;;5117018;28;20440;-73
2022/04/26 15:28:33;;;;;;;5.70;1.90;;;22.60;25.00;;;;;;5117395;28;20453;-74
2022/04/26 15:31:01;;;;;;;3.20;1.83;;;22.50;25.40;;;;;;5118058;28;20464;-73
2022/04/26 15:33:28;;;;;;;2.93;1.80;;;22.50;25.30;;;;;;5117339;28;20940;-72
2022/04/26 15:35:57;;;;;;;3.47;2.20;;;22.40;25.10;;;;;;5116418;28;20456;-74
2022/04/26 15:38:27;;;;;;;1.80;1.70;;;22.30;25.40;;;;;;5116615;28;20449;-74
2022/04/26 15:41:01;;;;;;;4.43;2.30;;;22.50;26.00;;;;;;5116244;28;20724;-73
2022/04/26 15:43:29;;;;;;;4.90;2.27;;;22.40;25.50;;;;;;5117213;28;20436;-73
2022/04/26 15:45:56;;;;;;;2.20;1.97;;;22.10;25.60;;;;;;5116351;28;20452;-72
2022/04/26 15:48:24;;;;;;;3.50;1.97;;;21.80;25.90;;;;;;5115690;28;20517;-73
2022/04/26 15:50:51;;;;;;;2.93;1.90;;;21.40;26.00;;;;;;5116321;28;20452;-73
2022/04/26 15:53:17;;;;;;;5.70;2.30;;;21.10;26.40;;;;;;5116680;28;20475;-73
2022/04/26 15:55:44;;;;;;;3.33;2.23;;;20.80;26.80;;;;;;5116005;28;20480;-72
2022/04/26 15:58:13;;;;;;;4.10;2.00;;;20.60;27.20;;;;;;5116505;28;20768;-73
2022/04/26 16:00:40;;;;;;;3.47;2.50;;;20.50;27.50;;;;;;5115782;28;20460;-72
2022/04/26 16:03:06;;;;;;;4.73;2.07;;;20.30;27.60;;;;;;5115752;28;20525;-72
2022/04/26 16:05:33;;;;;;;3.63;2.00;;;20.10;27.80;;;;;;5115401;28;20506;-72
2022/04/26 16:08:00;;;;;;;8.93;2.23;;;19.90;28.00;;;;;;5116264;28;20457;-73
2022/04/26 16:21:25;;;;;;;2.93;1.87;;;19.50;28.80;;;;;;5116185;28;20428;-74
2022/04/26 16:23:53;;;;;;;2.87;2.50;;;19.40;28.70;;;;;;5116228;28;20650;-73
2022/04/26 16:26:22;;;;;;;11.20;2.40;;;19.40;28.00;;;;;;5116300;28;20457;-74
2022/04/26 16:28:49;;;;;;;2.40;2.20;;;19.30;27.70;;;;;;5116662;28;20866;-74
2022/04/26 16:31:18;;;;;;;2.70;2.30;;;19.20;28.10;;;;;;5115985;28;20452;-72
2022/04/26 16:33:45;;;;;;;6.93;2.30;;;19.10;28.20;;;;;;5115913;28;20751;-72
2022/04/26 16:36:12;;;;;;;1.90;1.80;;;19.00;28.60;;;;;;5116054;28;20452;-73
2022/04/26 16:38:38;;;;;;;3.67;3.10;;;18.90;28.60;;;;;;5115601;28;20460;-72
2022/04/26 16:41:06;;;;;;;7.90;4.80;;;18.90;28.60;;;;;;5115371;28;20460;-72
2022/04/26 16:43:33;;;;;;;4.87;4.10;;;18.80;28.40;;;;;;5116712;28;20829;-72
2022/04/26 16:46:01;;;;;;;19.53;15.10;;;18.70;28.80;;;;;;5116031;28;20456;-73
2022/04/26 16:48:30;;;;;;;3.30;3.00;;;18.60;28.90;;;;;;5115155;28;20939;-72
2022/04/26 16:50:56;;;;;;;5.17;2.20;;;18.50;29.10;;;;;;5115167;28;20457;-72
2022/04/26 16:53:23;;;;;;;2.57;1.80;;;18.40;29.20;;;;;;5116125;28;20456;-73
2022/04/26 16:55:50;;;;;;;3.00;2.40;;;18.40;29.30;;;;;;5115264;28;20472;-73
2022/04/26 16:58:18;;;;;;;5.50;2.77;;;18.40;29.30;;;;;;5115641;28;20916;-73
2022/04/26 17:00:46;;;;;;;2.80;2.10;;;18.40;29.60;;;;;;5114849;28;20999;-72
2022/04/26 17:03:14;;;;;;;2.43;2.10;;;18.50;29.70;;;;;;5115496;28;20840;-72
2022/04/26 17:05:45;;;;;;;5.33;2.97;;;18.50;29.30;;;;;;5114960;28;20482;-73
2022/04/26 17:08:12;;;;;;;2.57;2.37;;;18.50;29.50;;;;;;5114953;28;20433;-73
2022/04/26 17:10:39;;;;;;;3.00;2.10;;;18.50;29.40;;;;;;5115172;28;20457;-73
2022/04/26 17:13:05;;;;;;;2.80;1.80;;;18.40;29.50;;;;;;5115035;28;20456;-72